Here is the Quick Look data you requested

The Data originates at the National Weather Service, and is made available here by the UAlbany Department of Atmospheric and Environmental Sciences

Surface Observations

KBDL 250151Z 18007KT 10SM BKN120 BKN180 BKN250 14/01 A3017 RMK AO2 SLP216
 T01390011=
KBDR 250152Z 07008KT 10SM BKN085 OVC110 11/07 A3016 RMK AO2 RAE13 SLP212 P0000
 T01110072=
KDXR 250153Z 07006KT 10SM FEW070 OVC090 11/06 A3016 RMK AO2 RAE0055 SLP213
 P0000 T01060056=
KGON 250156Z 09005KT 10SM -RA FEW080 OVC100 10/07 A3018 RMK AO2 RAB37 SLP218
 P0000 T01000067=
KHFD 250153Z 18004KT 10SM BKN110 12/04 A3018 RMK AO2 SLP218 T01170044=
KHVN 250153Z 07005KT 10SM FEW080 OVC100 10/06 A3016 RMK AO2 SLP214 T01000061=
KIJD 250152Z AUTO 00000KT 10SM BKN110 12/06 A3019 RMK AO2 SLP224 T01220056=
KMMK 250153Z AUTO 00000KT 10SM OVC100 12/05 A3017 RMK AO2 SLP217 T01170050 TSNO=
KOXC 250155Z AUTO 07004KT 10SM OVC100 11/03 A3017 RMK AO1=